Cooke City, Montana
Current Conditions -  °F | °C
As of 8:53 AM on Wednesday 26 Nov 2014 (Local Time) from KLVM Reporting Station
Overcast Overcast  
Wind Chill: 26°   Ceiling: 5000
Heat Index: 26°   Visibility: 9mi
Dew Point: 24°   Wind: 0mph
Humidity: 92%   Direction: NA
Pressure: 30.12"   Gusts: NA
Location:  45.02°N, 109.94°W
Report Text: KLVM 261553Z AUTO 00000KT 9SM OVC050 M03/M04 A3012 RMK AO2 SNE51 SLP239 P0001 T10331044
Loading
Personal Weather Stations






























Interactive Weather Map New forecast layout! Learn more

10-Day Weather Forecast

Advertisements
Track Severe Weather on mobile